Portada
METAR-TAF:

METAR-TAF

Aeroports :

Agartala, Índia

latitud: 23-53-24N, longitud: 91-14-32E, altitud: 14 m

Observació

L'informe es va fer fa 34 minuts, a les 10:30 UTC
Vent calma
Temperatura 28°C
Humitat 66%
Pressió 1012 hPa
Visibilitat: 6000 m
Escasses núvols a una alçada de 2000 ft

METAR: VEAT 211030Z 00000KT 6000 FEW020 28/21 Q1012 NOSIG

Hora: 16:34 (11:04 UTC)

Pronòstic

L'informe es va fer fa 3 hores i 4 minuts, a les 08:00 UTC
Pronòstic vàlid del 21 a les 09 UTC al 21 a les 18 UTC
Vent kt del Nord
Visibilitat: 6000 m
Núvols disperses a una alçada de 2000 ft
Evolucionant progressivament
l' 21 a les 16 UTC al 21 a les 18 UTC
Visibilitat: 5000 m
boirina

TAF: VEAT 210800Z 2109/2118 00000KT 6000 SCT020 BECMG 2116/2118 5000 BR NSC

Observacions i pronòstics meteorològics de més de 4000 aeroports (METAR i TAF).

Les estacions disponibles són els punts grocs i vermells al mapa.

Posi el ratolí al punt desitjat per veure el nom de l'estació.

Feu clic per veure les observacions i els pronòstics meteorològics.

Per canviar el mapa: feu clic els botons verds amb una creu de color negre per apropar; al botó verd amb un guió per allunyar la imatge; o en les fletxes verdes per a mapes adjacents.


METAR-TAF: